sensor_id;sensor_type;location;lat;lon;timestamp;P1;durP1;ratioP1;P2;durP2;ratioP2
71166;SDS011;58864;45.928;20.078;2023-04-24T00:01:09;13.70;;;7.68;;
71166;SDS011;58864;45.928;20.078;2023-04-24T00:03:34;15.27;;;8.27;;
71166;SDS011;58864;45.928;20.078;2023-04-24T00:05:59;14.25;;;8.05;;
71166;SDS011;58864;45.928;20.078;2023-04-24T00:08:24;12.88;;;7.18;;
71166;SDS011;58864;45.928;20.078;2023-04-24T00:10:49;11.97;;;6.53;;
71166;SDS011;58864;45.928;20.078;2023-04-24T00:13:13;13.93;;;6.83;;
71166;SDS011;58864;45.928;20.078;2023-04-24T00:15:38;14.57;;;7.32;;
71166;SDS011;58864;45.928;20.078;2023-04-24T00:18:02;11.03;;;6.40;;
71166;SDS011;58864;45.928;20.078;2023-04-24T00:20:27;10.93;;;6.80;;
71166;SDS011;58864;45.928;20.078;2023-04-24T00:22:56;13.10;;;6.90;;
71166;SDS011;58864;45.928;20.078;2023-04-24T00:25:21;11.63;;;6.43;;
71166;SDS011;58864;45.928;20.078;2023-04-24T00:27:45;12.13;;;6.45;;
71166;SDS011;58864;45.928;20.078;2023-04-24T00:30:10;13.23;;;6.60;;
71166;SDS011;58864;45.928;20.078;2023-04-24T00:32:34;9.98;;;5.72;;
71166;SDS011;58864;45.928;20.078;2023-04-24T00:34:59;16.40;;;6.60;;
71166;SDS011;58864;45.928;20.078;2023-04-24T00:37:24;13.83;;;6.63;;
71166;SDS011;58864;45.928;20.078;2023-04-24T00:39:48;12.77;;;6.53;;
71166;SDS011;58864;45.928;20.078;2023-04-24T00:42:12;13.73;;;6.27;;
71166;SDS011;58864;45.928;20.078;2023-04-24T00:44:37;11.33;;;6.07;;
71166;SDS011;58864;45.928;20.078;2023-04-24T00:47:01;11.68;;;6.20;;
71166;SDS011;58864;45.928;20.078;2023-04-24T00:49:26;12.53;;;5.93;;
71166;SDS011;58864;45.928;20.078;2023-04-24T00:51:51;15.97;;;5.80;;
71166;SDS011;58864;45.928;20.078;2023-04-24T00:54:15;11.87;;;6.00;;
71166;SDS011;58864;45.928;20.078;2023-04-24T00:56:40;11.98;;;6.03;;
71166;SDS011;58864;45.928;20.078;2023-04-24T00:59:06;13.27;;;5.93;;
71166;SDS011;58864;45.928;20.078;2023-04-24T01:01:30;12.38;;;5.85;;
71166;SDS011;58864;45.928;20.078;2023-04-24T01:03:56;12.75;;;5.78;;
71166;SDS011;58864;45.928;20.078;2023-04-24T01:06:21;10.55;;;5.63;;
71166;SDS011;58864;45.928;20.078;2023-04-24T01:08:46;14.17;;;6.37;;
71166;SDS011;58864;45.928;20.078;2023-04-24T01:11:12;12.38;;;6.45;;
71166;SDS011;58864;45.928;20.078;2023-04-24T01:13:36;12.93;;;6.10;;
71166;SDS011;58864;45.928;20.078;2023-04-24T01:16:00;10.97;;;5.77;;
71166;SDS011;58864;45.928;20.078;2023-04-24T01:18:25;12.00;;;6.30;;
71166;SDS011;58864;45.928;20.078;2023-04-24T01:20:51;14.40;;;6.55;;
71166;SDS011;58864;45.928;20.078;2023-04-24T01:23:17;15.02;;;6.50;;
71166;SDS011;58864;45.928;20.078;2023-04-24T01:25:42;11.47;;;5.90;;
71166;SDS011;58864;45.928;20.078;2023-04-24T01:28:06;10.90;;;6.10;;
71166;SDS011;58864;45.928;20.078;2023-04-24T01:30:31;12.20;;;6.22;;
71166;SDS011;58864;45.928;20.078;2023-04-24T01:32:56;11.73;;;5.83;;
71166;SDS011;58864;45.928;20.078;2023-04-24T01:35:20;10.53;;;5.87;;
71166;SDS011;58864;45.928;20.078;2023-04-24T01:37:44;14.95;;;6.05;;
71166;SDS011;58864;45.928;20.078;2023-04-24T01:40:09;13.47;;;6.80;;
71166;SDS011;58864;45.928;20.078;2023-04-24T01:42:34;12.30;;;6.68;;
71166;SDS011;58864;45.928;20.078;2023-04-24T01:44:59;12.40;;;6.57;;
71166;SDS011;58864;45.928;20.078;2023-04-24T01:47:24;11.63;;;5.90;;
71166;SDS011;58864;45.928;20.078;2023-04-24T01:49:48;11.17;;;5.93;;
71166;SDS011;58864;45.928;20.078;2023-04-24T01:52:14;11.63;;;6.78;;
71166;SDS011;58864;45.928;20.078;2023-04-24T01:54:38;13.77;;;6.43;;
71166;SDS011;58864;45.928;20.078;2023-04-24T01:57:03;11.48;;;6.65;;
71166;SDS011;58864;45.928;20.078;2023-04-24T01:59:28;11.27;;;6.20;;
71166;SDS011;58864;45.928;20.078;2023-04-24T02:01:52;11.68;;;6.15;;
71166;SDS011;58864;45.928;20.078;2023-04-24T02:04:17;11.73;;;6.30;;
71166;SDS011;58864;45.928;20.078;2023-04-24T02:06:41;18.33;;;6.90;;
71166;SDS011;58864;45.928;20.078;2023-04-24T02:09:06;11.27;;;6.43;;
71166;SDS011;58864;45.928;20.078;2023-04-24T02:11:30;12.50;;;6.40;;
71166;SDS011;58864;45.928;20.078;2023-04-24T02:13:55;14.33;;;6.83;;
71166;SDS011;58864;45.928;20.078;2023-04-24T02:16:19;12.13;;;6.57;;
71166;SDS011;58864;45.928;20.078;2023-04-24T02:18:44;11.80;;;6.72;;
71166;SDS011;58864;45.928;20.078;2023-04-24T02:21:09;11.53;;;6.80;;
71166;SDS011;58864;45.928;20.078;2023-04-24T02:23:33;14.57;;;6.38;;
71166;SDS011;58864;45.928;20.078;2023-04-24T02:25:58;14.03;;;6.47;;
71166;SDS011;58864;45.928;20.078;2023-04-24T02:28:22;11.27;;;6.53;;
71166;SDS011;58864;45.928;20.078;2023-04-24T02:30:47;14.73;;;6.97;;
71166;SDS011;58864;45.928;20.078;2023-04-24T02:33:11;12.23;;;6.50;;
71166;SDS011;58864;45.928;20.078;2023-04-24T02:35:36;12.93;;;7.07;;
71166;SDS011;58864;45.928;20.078;2023-04-24T02:38:00;12.37;;;6.63;;
71166;SDS011;58864;45.928;20.078;2023-04-24T02:40:25;13.53;;;7.13;;
71166;SDS011;58864;45.928;20.078;2023-04-24T02:42:49;14.30;;;7.30;;
71166;SDS011;58864;45.928;20.078;2023-04-24T02:45:13;14.73;;;7.10;;
71166;SDS011;58864;45.928;20.078;2023-04-24T02:47:38;13.40;;;7.25;;
71166;SDS011;58864;45.928;20.078;2023-04-24T02:50:02;14.27;;;7.20;;
71166;SDS011;58864;45.928;20.078;2023-04-24T02:52:28;14.82;;;7.10;;
71166;SDS011;58864;45.928;20.078;2023-04-24T02:54:52;13.10;;;7.13;;
71166;SDS011;58864;45.928;20.078;2023-04-24T02:57:17;13.65;;;6.70;;
71166;SDS011;58864;45.928;20.078;2023-04-24T02:59:42;14.40;;;7.20;;
71166;SDS011;58864;45.928;20.078;2023-04-24T03:02:06;14.90;;;7.35;;
71166;SDS011;58864;45.928;20.078;2023-04-24T03:04:31;16.07;;;7.47;;
71166;SDS011;58864;45.928;20.078;2023-04-24T03:06:56;12.83;;;6.90;;
71166;SDS011;58864;45.928;20.078;2023-04-24T03:09:20;13.00;;;7.22;;
71166;SDS011;58864;45.928;20.078;2023-04-24T03:11:45;14.48;;;7.15;;
71166;SDS011;58864;45.928;20.078;2023-04-24T03:14:09;13.13;;;7.17;;
71166;SDS011;58864;45.928;20.078;2023-04-24T03:16:34;12.17;;;6.87;;
71166;SDS011;58864;45.928;20.078;2023-04-24T03:18:58;13.97;;;6.73;;
71166;SDS011;58864;45.928;20.078;2023-04-24T03:21:23;12.55;;;7.07;;
71166;SDS011;58864;45.928;20.078;2023-04-24T03:23:47;14.90;;;7.10;;
71166;SDS011;58864;45.928;20.078;2023-04-24T03:26:12;13.30;;;6.83;;
71166;SDS011;58864;45.928;20.078;2023-04-24T03:28:36;11.63;;;7.30;;
71166;SDS011;58864;45.928;20.078;2023-04-24T03:31:00;11.80;;;6.77;;
71166;SDS011;58864;45.928;20.078;2023-04-24T03:33:27;17.17;;;6.93;;
71166;SDS011;58864;45.928;20.078;2023-04-24T03:35:51;16.70;;;7.10;;
71166;SDS011;58864;45.928;20.078;2023-04-24T03:38:16;11.93;;;7.17;;
71166;SDS011;58864;45.928;20.078;2023-04-24T03:40:41;11.70;;;6.75;;
71166;SDS011;58864;45.928;20.078;2023-04-24T03:43:05;13.17;;;7.00;;
71166;SDS011;58864;45.928;20.078;2023-04-24T03:45:36;12.87;;;6.07;;
71166;SDS011;58864;45.928;20.078;2023-04-24T03:48:00;14.65;;;7.15;;
71166;SDS011;58864;45.928;20.078;2023-04-24T03:50:28;11.95;;;6.70;;
71166;SDS011;58864;45.928;20.078;2023-04-24T03:52:53;13.45;;;7.80;;
71166;SDS011;58864;45.928;20.078;2023-04-24T03:55:18;12.80;;;7.10;;
71166;SDS011;58864;45.928;20.078;2023-04-24T03:57:42;12.37;;;6.97;;
71166;SDS011;58864;45.928;20.078;2023-04-24T04:00:07;14.33;;;6.47;;
71166;SDS011;58864;45.928;20.078;2023-04-24T04:02:32;12.00;;;7.05;;
71166;SDS011;58864;45.928;20.078;2023-04-24T04:04:57;12.47;;;6.77;;
71166;SDS011;58864;45.928;20.078;2023-04-24T04:07:21;12.90;;;6.75;;
71166;SDS011;58864;45.928;20.078;2023-04-24T04:09:46;12.47;;;7.10;;
71166;SDS011;58864;45.928;20.078;2023-04-24T04:12:10;13.73;;;8.00;;
71166;SDS011;58864;45.928;20.078;2023-04-24T04:14:34;11.17;;;6.63;;
71166;SDS011;58864;45.928;20.078;2023-04-24T04:16:59;13.17;;;6.97;;
71166;SDS011;58864;45.928;20.078;2023-04-24T04:19:23;17.30;;;6.77;;
71166;SDS011;58864;45.928;20.078;2023-04-24T04:21:48;11.70;;;6.47;;
71166;SDS011;58864;45.928;20.078;2023-04-24T04:24:16;14.50;;;7.50;;
71166;SDS011;58864;45.928;20.078;2023-04-24T04:26:41;12.87;;;7.23;;
71166;SDS011;58864;45.928;20.078;2023-04-24T04:29:10;13.77;;;7.57;;
71166;SDS011;58864;45.928;20.078;2023-04-24T04:31:34;14.13;;;8.23;;
71166;SDS011;58864;45.928;20.078;2023-04-24T04:33:59;13.73;;;7.57;;
71166;SDS011;58864;45.928;20.078;2023-04-24T04:36:23;14.10;;;7.90;;
71166;SDS011;58864;45.928;20.078;2023-04-24T04:38:48;11.13;;;6.60;;
71166;SDS011;58864;45.928;20.078;2023-04-24T04:41:12;13.10;;;8.23;;
71166;SDS011;58864;45.928;20.078;2023-04-24T04:43:36;18.70;;;7.00;;
71166;SDS011;58864;45.928;20.078;2023-04-24T04:46:03;13.75;;;7.63;;
71166;SDS011;58864;45.928;20.078;2023-04-24T04:48:28;18.37;;;8.60;;
71166;SDS011;58864;45.928;20.078;2023-04-24T04:50:52;19.27;;;8.98;;
71166;SDS011;58864;45.928;20.078;2023-04-24T04:53:17;13.30;;;7.63;;
71166;SDS011;58864;45.928;20.078;2023-04-24T04:55:41;15.53;;;7.87;;
71166;SDS011;58864;45.928;20.078;2023-04-24T04:58:05;13.83;;;7.77;;
71166;SDS011;58864;45.928;20.078;2023-04-24T05:00:30;15.37;;;7.90;;
71166;SDS011;58864;45.928;20.078;2023-04-24T05:02:59;13.87;;;7.40;;
71166;SDS011;58864;45.928;20.078;2023-04-24T05:05:24;16.42;;;7.75;;
71166;SDS011;58864;45.928;20.078;2023-04-24T05:07:48;12.57;;;7.30;;
71166;SDS011;58864;45.928;20.078;2023-04-24T05:10:12;13.60;;;6.73;;
71166;SDS011;58864;45.928;20.078;2023-04-24T05:12:37;16.55;;;7.25;;
71166;SDS011;58864;45.928;20.078;2023-04-24T05:15:01;17.30;;;9.13;;
71166;SDS011;58864;45.928;20.078;2023-04-24T05:17:26;18.27;;;8.32;;
71166;SDS011;58864;45.928;20.078;2023-04-24T05:19:51;12.90;;;7.73;;
71166;SDS011;58864;45.928;20.078;2023-04-24T05:22:16;12.87;;;7.30;;
71166;SDS011;58864;45.928;20.078;2023-04-24T05:24:42;17.38;;;9.27;;
71166;SDS011;58864;45.928;20.078;2023-04-24T05:27:06;14.27;;;8.67;;
71166;SDS011;58864;45.928;20.078;2023-04-24T05:29:31;15.45;;;8.85;;
71166;SDS011;58864;45.928;20.078;2023-04-24T05:31:57;15.87;;;8.30;;
71166;SDS011;58864;45.928;20.078;2023-04-24T05:34:22;13.68;;;8.07;;
71166;SDS011;58864;45.928;20.078;2023-04-24T05:36:46;13.53;;;8.17;;
71166;SDS011;58864;45.928;20.078;2023-04-24T05:39:10;12.80;;;7.82;;
71166;SDS011;58864;45.928;20.078;2023-04-24T05:41:35;17.77;;;9.03;;
71166;SDS011;58864;45.928;20.078;2023-04-24T05:44:00;17.50;;;8.68;;
71166;SDS011;58864;45.928;20.078;2023-04-24T05:46:24;14.63;;;8.00;;
71166;SDS011;58864;45.928;20.078;2023-04-24T05:48:49;15.50;;;8.50;;
71166;SDS011;58864;45.928;20.078;2023-04-24T05:51:13;15.52;;;9.70;;
71166;SDS011;58864;45.928;20.078;2023-04-24T05:53:38;15.43;;;8.47;;
71166;SDS011;58864;45.928;20.078;2023-04-24T05:56:02;14.90;;;8.60;;
71166;SDS011;58864;45.928;20.078;2023-04-24T05:58:27;15.05;;;9.27;;
71166;SDS011;58864;45.928;20.078;2023-04-24T06:00:51;17.43;;;9.00;;
71166;SDS011;58864;45.928;20.078;2023-04-24T06:03:16;16.90;;;8.83;;
71166;SDS011;58864;45.928;20.078;2023-04-24T06:05:40;14.50;;;8.40;;
71166;SDS011;58864;45.928;20.078;2023-04-24T06:08:04;14.90;;;8.63;;
71166;SDS011;58864;45.928;20.078;2023-04-24T06:10:29;13.90;;;8.30;;
71166;SDS011;58864;45.928;20.078;2023-04-24T06:12:53;14.17;;;8.40;;
71166;SDS011;58864;45.928;20.078;2023-04-24T06:15:20;15.48;;;9.15;;
71166;SDS011;58864;45.928;20.078;2023-04-24T06:17:45;15.97;;;8.60;;
71166;SDS011;58864;45.928;20.078;2023-04-24T06:20:10;15.95;;;8.32;;
71166;SDS011;58864;45.928;20.078;2023-04-24T06:22:35;13.63;;;8.30;;
71166;SDS011;58864;45.928;20.078;2023-04-24T06:24:59;13.67;;;7.87;;
71166;SDS011;58864;45.928;20.078;2023-04-24T06:27:24;14.57;;;8.48;;
71166;SDS011;58864;45.928;20.078;2023-04-24T06:29:49;16.43;;;9.03;;
71166;SDS011;58864;45.928;20.078;2023-04-24T06:32:18;19.25;;;10.25;;
71166;SDS011;58864;45.928;20.078;2023-04-24T06:34:42;21.97;;;9.53;;
71166;SDS011;58864;45.928;20.078;2023-04-24T06:37:07;16.80;;;8.70;;
71166;SDS011;58864;45.928;20.078;2023-04-24T06:39:31;16.07;;;8.30;;
71166;SDS011;58864;45.928;20.078;2023-04-24T06:41:56;13.20;;;8.07;;
71166;SDS011;58864;45.928;20.078;2023-04-24T06:44:20;16.30;;;8.80;;
71166;SDS011;58864;45.928;20.078;2023-04-24T06:46:44;14.90;;;8.68;;
71166;SDS011;58864;45.928;20.078;2023-04-24T06:49:09;15.57;;;8.50;;
71166;SDS011;58864;45.928;20.078;2023-04-24T06:51:33;14.90;;;8.17;;
71166;SDS011;58864;45.928;20.078;2023-04-24T06:53:58;13.20;;;8.55;;
71166;SDS011;58864;45.928;20.078;2023-04-24T06:56:23;14.07;;;8.80;;
71166;SDS011;58864;45.928;20.078;2023-04-24T06:58:47;14.07;;;8.32;;
71166;SDS011;58864;45.928;20.078;2023-04-24T07:01:12;16.43;;;9.10;;
71166;SDS011;58864;45.928;20.078;2023-04-24T07:03:36;21.07;;;10.10;;
71166;SDS011;58864;45.928;20.078;2023-04-24T07:06:01;20.20;;;10.40;;
71166;SDS011;58864;45.928;20.078;2023-04-24T07:08:27;19.27;;;9.68;;
71166;SDS011;58864;45.928;20.078;2023-04-24T07:10:52;17.10;;;9.67;;
71166;SDS011;58864;45.928;20.078;2023-04-24T07:13:16;16.52;;;9.38;;
71166;SDS011;58864;45.928;20.078;2023-04-24T07:15:41;14.67;;;9.13;;
71166;SDS011;58864;45.928;20.078;2023-04-24T07:18:06;15.50;;;9.07;;
71166;SDS011;58864;45.928;20.078;2023-04-24T07:20:30;15.83;;;8.30;;
71166;SDS011;58864;45.928;20.078;2023-04-24T07:22:55;14.20;;;8.37;;
71166;SDS011;58864;45.928;20.078;2023-04-24T07:25:19;15.60;;;9.03;;
71166;SDS011;58864;45.928;20.078;2023-04-24T07:27:44;13.18;;;7.80;;
71166;SDS011;58864;45.928;20.078;2023-04-24T07:30:08;14.63;;;8.50;;
71166;SDS011;58864;45.928;20.078;2023-04-24T07:32:33;13.43;;;7.85;;
71166;SDS011;58864;45.928;20.078;2023-04-24T07:34:58;14.07;;;7.57;;
71166;SDS011;58864;45.928;20.078;2023-04-24T07:37:23;13.47;;;8.23;;
71166;SDS011;58864;45.928;20.078;2023-04-24T07:39:48;16.10;;;8.52;;
71166;SDS011;58864;45.928;20.078;2023-04-24T07:42:12;14.00;;;8.30;;
71166;SDS011;58864;45.928;20.078;2023-04-24T07:44:37;16.07;;;8.73;;
71166;SDS011;58864;45.928;20.078;2023-04-24T07:47:01;14.50;;;8.77;;
71166;SDS011;58864;45.928;20.078;2023-04-24T07:49:25;12.20;;;7.65;;
71166;SDS011;58864;45.928;20.078;2023-04-24T07:51:51;13.05;;;7.80;;
71166;SDS011;58864;45.928;20.078;2023-04-24T07:54:16;15.40;;;8.90;;
71166;SDS011;58864;45.928;20.078;2023-04-24T07:56:40;14.23;;;8.30;;
71166;SDS011;58864;45.928;20.078;2023-04-24T07:59:06;12.05;;;7.72;;
71166;SDS011;58864;45.928;20.078;2023-04-24T08:01:31;16.57;;;8.67;;
71166;SDS011;58864;45.928;20.078;2023-04-24T08:03:55;15.23;;;8.37;;
71166;SDS011;58864;45.928;20.078;2023-04-24T08:06:20;15.38;;;9.70;;
71166;SDS011;58864;45.928;20.078;2023-04-24T08:08:44;12.93;;;8.57;;
71166;SDS011;58864;45.928;20.078;2023-04-24T08:11:09;13.83;;;9.50;;
71166;SDS011;58864;45.928;20.078;2023-04-24T08:13:33;13.70;;;8.50;;
71166;SDS011;58864;45.928;20.078;2023-04-24T08:15:58;13.33;;;8.00;;
71166;SDS011;58864;45.928;20.078;2023-04-24T08:18:22;13.57;;;8.50;;
71166;SDS011;58864;45.928;20.078;2023-04-24T08:20:47;13.43;;;8.18;;
71166;SDS011;58864;45.928;20.078;2023-04-24T08:23:11;14.70;;;8.73;;
71166;SDS011;58864;45.928;20.078;2023-04-24T08:25:36;17.40;;;8.63;;
71166;SDS011;58864;45.928;20.078;2023-04-24T08:28:02;12.53;;;8.03;;
71166;SDS011;58864;45.928;20.078;2023-04-24T08:30:28;14.27;;;7.85;;
71166;SDS011;58864;45.928;20.078;2023-04-24T08:32:52;14.03;;;8.07;;
71166;SDS011;58864;45.928;20.078;2023-04-24T08:35:17;14.75;;;8.95;;
71166;SDS011;58864;45.928;20.078;2023-04-24T08:37:42;16.77;;;9.05;;
71166;SDS011;58864;45.928;20.078;2023-04-24T08:40:12;17.67;;;8.20;;
71166;SDS011;58864;45.928;20.078;2023-04-24T08:42:38;14.50;;;7.97;;
71166;SDS011;58864;45.928;20.078;2023-04-24T08:45:03;17.40;;;7.77;;
71166;SDS011;58864;45.928;20.078;2023-04-24T08:47:29;12.15;;;7.03;;
71166;SDS011;58864;45.928;20.078;2023-04-24T08:49:54;17.00;;;6.93;;
71166;SDS011;58864;45.928;20.078;2023-04-24T08:52:18;15.70;;;7.20;;
71166;SDS011;58864;45.928;20.078;2023-04-24T08:54:44;12.13;;;6.70;;
71166;SDS011;58864;45.928;20.078;2023-04-24T08:57:10;14.30;;;6.88;;
71166;SDS011;58864;45.928;20.078;2023-04-24T08:59:35;23.10;;;8.40;;
71166;SDS011;58864;45.928;20.078;2023-04-24T09:02:00;23.42;;;9.48;;
71166;SDS011;58864;45.928;20.078;2023-04-24T09:04:25;23.33;;;9.63;;
71166;SDS011;58864;45.928;20.078;2023-04-24T09:06:55;33.75;;;12.48;;
71166;SDS011;58864;45.928;20.078;2023-04-24T09:09:20;25.37;;;10.87;;
71166;SDS011;58864;45.928;20.078;2023-04-24T09:11:45;26.60;;;10.82;;
71166;SDS011;58864;45.928;20.078;2023-04-24T09:14:10;20.23;;;9.80;;
71166;SDS011;58864;45.928;20.078;2023-04-24T09:16:35;19.80;;;10.02;;
71166;SDS011;58864;45.928;20.078;2023-04-24T09:19:00;18.27;;;9.53;;
71166;SDS011;58864;45.928;20.078;2023-04-24T09:21:24;21.27;;;8.40;;
71166;SDS011;58864;45.928;20.078;2023-04-24T09:24:00;17.13;;;8.95;;
71166;SDS011;58864;45.928;20.078;2023-04-24T09:26:30;16.52;;;8.57;;
71166;SDS011;58864;45.928;20.078;2023-04-24T09:28:56;17.10;;;8.38;;
71166;SDS011;58864;45.928;20.078;2023-04-24T09:31:20;15.53;;;8.77;;
71166;SDS011;58864;45.928;20.078;2023-04-24T09:34:03;27.35;;;9.30;;
71166;SDS011;58864;45.928;20.078;2023-04-24T09:36:32;19.98;;;8.82;;
71166;SDS011;58864;45.928;20.078;2023-04-24T09:39:01;16.80;;;7.82;;
71166;SDS011;58864;45.928;20.078;2023-04-24T09:41:26;12.70;;;7.40;;
71166;SDS011;58864;45.928;20.078;2023-04-24T09:43:56;14.63;;;8.02;;
71166;SDS011;58864;45.928;20.078;2023-04-24T09:46:21;16.00;;;8.75;;
71166;SDS011;58864;45.928;20.078;2023-04-24T09:48:46;14.77;;;8.85;;
71166;SDS011;58864;45.928;20.078;2023-04-24T09:51:10;15.57;;;9.73;;
71166;SDS011;58864;45.928;20.078;2023-04-24T09:53:36;18.27;;;10.20;;
71166;SDS011;58864;45.928;20.078;2023-04-24T09:56:10;21.00;;;11.47;;
71166;SDS011;58864;45.928;20.078;2023-04-24T09:58:36;17.10;;;10.85;;
71166;SDS011;58864;45.928;20.078;2023-04-24T10:01:01;20.57;;;11.10;;
71166;SDS011;58864;45.928;20.078;2023-04-24T10:03:26;17.33;;;10.40;;
71166;SDS011;58864;45.928;20.078;2023-04-24T10:05:53;21.13;;;12.10;;
71166;SDS011;58864;45.928;20.078;2023-04-24T10:08:19;17.08;;;9.82;;
71166;SDS011;58864;45.928;20.078;2023-04-24T10:10:44;15.63;;;8.60;;
71166;SDS011;58864;45.928;20.078;2023-04-24T10:13:10;12.45;;;7.88;;
71166;SDS011;58864;45.928;20.078;2023-04-24T10:15:35;16.03;;;8.63;;
71166;SDS011;58864;45.928;20.078;2023-04-24T10:17:59;17.38;;;8.88;;
71166;SDS011;58864;45.928;20.078;2023-04-24T10:20:25;14.73;;;8.50;;
71166;SDS011;58864;45.928;20.078;2023-04-24T10:22:51;15.77;;;8.57;;
71166;SDS011;58864;45.928;20.078;2023-04-24T10:25:21;15.75;;;8.82;;
71166;SDS011;58864;45.928;20.078;2023-04-24T10:27:47;14.73;;;8.95;;
71166;SDS011;58864;45.928;20.078;2023-04-24T10:30:13;16.20;;;9.37;;
71166;SDS011;58864;45.928;20.078;2023-04-24T10:32:38;19.63;;;11.35;;
71166;SDS011;58864;45.928;20.078;2023-04-24T10:35:02;17.90;;;9.47;;
71166;SDS011;58864;45.928;20.078;2023-04-24T10:37:27;16.77;;;9.67;;
71166;SDS011;58864;45.928;20.078;2023-04-24T10:39:52;20.73;;;11.10;;
71166;SDS011;58864;45.928;20.078;2023-04-24T10:42:18;13.88;;;8.15;;
71166;SDS011;58864;45.928;20.078;2023-04-24T10:44:43;14.50;;;8.03;;
71166;SDS011;58864;45.928;20.078;2023-04-24T10:47:12;12.60;;;7.30;;
71166;SDS011;58864;45.928;20.078;2023-04-24T10:49:37;12.95;;;7.88;;
71166;SDS011;58864;45.928;20.078;2023-04-24T10:52:02;17.90;;;9.63;;
71166;SDS011;58864;45.928;20.078;2023-04-24T10:59:46;14.27;;;8.80;;
71166;SDS011;58864;45.928;20.078;2023-04-24T11:02:11;18.10;;;9.15;;
71166;SDS011;58864;45.928;20.078;2023-04-24T11:04:39;16.63;;;9.80;;
71166;SDS011;58864;45.928;20.078;2023-04-24T11:07:03;13.03;;;8.10;;
71166;SDS011;58864;45.928;20.078;2023-04-24T11:09:28;13.68;;;8.50;;
71166;SDS011;58864;45.928;20.078;2023-04-24T11:14:30;15.25;;;9.50;;
71166;SDS011;58864;45.928;20.078;2023-04-24T11:20:08;14.60;;;9.18;;
71166;SDS011;58864;45.928;20.078;2023-04-24T11:22:40;15.52;;;9.02;;
71166;SDS011;58864;45.928;20.078;2023-04-24T11:25:04;16.63;;;10.37;;
71166;SDS011;58864;45.928;20.078;2023-04-24T11:27:31;15.60;;;9.57;;
71166;SDS011;58864;45.928;20.078;2023-04-24T11:32:34;14.63;;;9.60;;
71166;SDS011;58864;45.928;20.078;2023-04-24T11:35:12;16.13;;;10.13;;
71166;SDS011;58864;45.928;20.078;2023-04-24T11:37:52;17.80;;;11.67;;
71166;SDS011;58864;45.928;20.078;2023-04-24T11:40:18;20.70;;;12.88;;
71166;SDS011;58864;45.928;20.078;2023-04-24T11:42:47;23.25;;;13.35;;
71166;SDS011;58864;45.928;20.078;2023-04-24T11:45:13;21.73;;;12.98;;
71166;SDS011;58864;45.928;20.078;2023-04-24T11:47:42;22.00;;;12.00;;
71166;SDS011;58864;45.928;20.078;2023-04-24T11:50:08;21.93;;;13.00;;
71166;SDS011;58864;45.928;20.078;2023-04-24T11:52:40;24.13;;;14.95;;
71166;SDS011;58864;45.928;20.078;2023-04-24T11:57:38;16.27;;;10.30;;
71166;SDS011;58864;45.928;20.078;2023-04-24T12:00:03;19.05;;;10.60;;
71166;SDS011;58864;45.928;20.078;2023-04-24T12:02:32;20.17;;;11.67;;
71166;SDS011;58864;45.928;20.078;2023-04-24T12:04:56;23.48;;;13.45;;
71166;SDS011;58864;45.928;20.078;2023-04-24T12:07:21;20.70;;;12.13;;
71166;SDS011;58864;45.928;20.078;2023-04-24T12:09:47;20.05;;;13.60;;
71166;SDS011;58864;45.928;20.078;2023-04-24T12:12:13;20.50;;;12.15;;
71166;SDS011;58864;45.928;20.078;2023-04-24T12:14:57;18.10;;;11.80;;
71166;SDS011;58864;45.928;20.078;2023-04-24T12:17:27;21.75;;;12.60;;
71166;SDS011;58864;45.928;20.078;2023-04-24T12:19:59;21.42;;;13.05;;
71166;SDS011;58864;45.928;20.078;2023-04-24T12:22:28;18.52;;;10.63;;
71166;SDS011;58864;45.928;20.078;2023-04-24T12:25:09;16.85;;;10.32;;
71166;SDS011;58864;45.928;20.078;2023-04-24T12:27:34;20.47;;;11.23;;
71166;SDS011;58864;45.928;20.078;2023-04-24T12:29:59;17.63;;;10.00;;
71166;SDS011;58864;45.928;20.078;2023-04-24T12:32:25;20.27;;;11.85;;
71166;SDS011;58864;45.928;20.078;2023-04-24T12:34:50;18.90;;;11.57;;
71166;SDS011;58864;45.928;20.078;2023-04-24T12:37:15;18.65;;;12.13;;
71166;SDS011;58864;45.928;20.078;2023-04-24T12:39:44;26.20;;;15.10;;
71166;SDS011;58864;45.928;20.078;2023-04-24T12:42:28;24.55;;;14.95;;
71166;SDS011;58864;45.928;20.078;2023-04-24T12:45:01;27.20;;;15.40;;
71166;SDS011;58864;45.928;20.078;2023-04-24T12:47:28;23.23;;;14.32;;
71166;SDS011;58864;45.928;20.078;2023-04-24T12:49:53;25.73;;;15.45;;
71166;SDS011;58864;45.928;20.078;2023-04-24T12:52:19;24.73;;;14.50;;
71166;SDS011;58864;45.928;20.078;2023-04-24T12:54:47;24.15;;;13.63;;
71166;SDS011;58864;45.928;20.078;2023-04-24T12:57:12;21.30;;;13.43;;
71166;SDS011;58864;45.928;20.078;2023-04-24T12:59:36;21.10;;;13.63;;
71166;SDS011;58864;45.928;20.078;2023-04-24T13:02:00;24.83;;;15.17;;
71166;SDS011;58864;45.928;20.078;2023-04-24T13:04:25;25.20;;;14.93;;
71166;SDS011;58864;45.928;20.078;2023-04-24T13:06:49;21.67;;;13.57;;
71166;SDS011;58864;45.928;20.078;2023-04-24T13:09:14;21.25;;;13.63;;
71166;SDS011;58864;45.928;20.078;2023-04-24T13:11:38;17.50;;;12.40;;
71166;SDS011;58864;45.928;20.078;2023-04-24T13:14:03;18.90;;;11.80;;
71166;SDS011;58864;45.928;20.078;2023-04-24T13:16:27;16.00;;;10.87;;
71166;SDS011;58864;45.928;20.078;2023-04-24T13:18:51;18.83;;;11.23;;
71166;SDS011;58864;45.928;20.078;2023-04-24T13:21:16;18.10;;;11.67;;
71166;SDS011;58864;45.928;20.078;2023-04-24T13:23:40;19.43;;;12.37;;
71166;SDS011;58864;45.928;20.078;2023-04-24T13:26:05;18.53;;;12.47;;
71166;SDS011;58864;45.928;20.078;2023-04-24T13:28:29;19.92;;;13.07;;
71166;SDS011;58864;45.928;20.078;2023-04-24T13:30:54;25.10;;;14.60;;
71166;SDS011;58864;45.928;20.078;2023-04-24T13:33:18;30.70;;;17.27;;
71166;SDS011;58864;45.928;20.078;2023-04-24T13:35:43;29.13;;;18.23;;
71166;SDS011;58864;45.928;20.078;2023-04-24T13:38:07;23.90;;;14.77;;
71166;SDS011;58864;45.928;20.078;2023-04-24T13:40:32;27.17;;;14.93;;
71166;SDS011;58864;45.928;20.078;2023-04-24T13:42:57;35.13;;;19.75;;
71166;SDS011;58864;45.928;20.078;2023-04-24T13:45:21;28.47;;;16.30;;
71166;SDS011;58864;45.928;20.078;2023-04-24T13:47:46;39.33;;;19.55;;
71166;SDS011;58864;45.928;20.078;2023-04-24T13:50:10;24.83;;;14.50;;
71166;SDS011;58864;45.928;20.078;2023-04-24T13:52:35;29.38;;;16.70;;
71166;SDS011;58864;45.928;20.078;2023-04-24T13:55:00;21.03;;;12.97;;
71166;SDS011;58864;45.928;20.078;2023-04-24T13:57:24;21.57;;;13.93;;
71166;SDS011;58864;45.928;20.078;2023-04-24T13:59:49;18.63;;;12.70;;
71166;SDS011;58864;45.928;20.078;2023-04-24T14:02:13;18.37;;;11.43;;
71166;SDS011;58864;45.928;20.078;2023-04-24T14:04:38;22.60;;;14.53;;
71166;SDS011;58864;45.928;20.078;2023-04-24T14:07:02;17.70;;;12.00;;
71166;SDS011;58864;45.928;20.078;2023-04-24T14:09:26;19.25;;;12.18;;
71166;SDS011;58864;45.928;20.078;2023-04-24T14:11:51;17.73;;;12.10;;
71166;SDS011;58864;45.928;20.078;2023-04-24T14:14:16;17.35;;;11.85;;
71166;SDS011;58864;45.928;20.078;2023-04-24T14:16:40;17.03;;;11.33;;
71166;SDS011;58864;45.928;20.078;2023-04-24T14:19:04;16.37;;;11.00;;
71166;SDS011;58864;45.928;20.078;2023-04-24T14:21:30;18.55;;;11.95;;
71166;SDS011;58864;45.928;20.078;2023-04-24T14:23:55;17.73;;;11.70;;